createdAt,value
2023-03-21T00:00:17.280Z,15.93
2023-03-21T00:02:43.662Z,13.85
2023-03-21T00:05:15.801Z,14.48
2023-03-21T00:07:42.778Z,18.55
2023-03-21T00:10:16.558Z,15.45
2023-03-21T00:12:44.759Z,18.48
2023-03-21T00:15:12.796Z,15.57
2023-03-21T00:17:39.523Z,11.30
2023-03-21T00:20:15.221Z,16.55
2023-03-21T00:22:41.919Z,19.65
2023-03-21T00:25:10.488Z,15.80
2023-03-21T00:27:53.684Z,13.93
2023-03-21T00:30:23.965Z,12.57
2023-03-21T00:32:56.505Z,14.77
2023-03-21T00:35:57.483Z,15.70
2023-03-21T00:38:10.373Z,12.40
2023-03-21T00:40:43.779Z,13.98
2023-03-21T00:43:17.388Z,7.80
2023-03-21T00:45:44.947Z,14.27
2023-03-21T00:48:11.498Z,13.82
2023-03-21T00:50:39.339Z,13.32
2023-03-21T00:53:06.852Z,16.40
2023-03-21T00:55:33.899Z,11.75
2023-03-21T00:58:02.479Z,13.68
2023-03-21T01:00:29.720Z,13.05
2023-03-21T01:03:04.441Z,12.60
2023-03-21T01:05:57.099Z,13.70
2023-03-21T01:08:29.339Z,17.35
2023-03-21T01:11:01.944Z,15.63
2023-03-21T01:13:28.484Z,14.88
2023-03-21T01:15:56.698Z,15.80
2023-03-21T01:18:27.170Z,12.40
2023-03-21T01:20:56.076Z,16.83
2023-03-21T01:23:23.023Z,14.27
2023-03-21T01:25:52.421Z,17.90
2023-03-21T01:28:18.748Z,15.95
2023-03-21T01:30:50.845Z,16.48
2023-03-21T01:33:19.279Z,12.32
2023-03-21T01:35:53.472Z,14.27
2023-03-21T01:38:27.150Z,12.25
2023-03-21T01:40:53.796Z,15.05
2023-03-21T01:43:22.670Z,15.68
2023-03-21T01:46:27.351Z,16.38
2023-03-21T01:49:00.669Z,14.32
2023-03-21T01:51:28.778Z,12.18
2023-03-21T01:53:55.909Z,19.15
2023-03-21T01:56:26.350Z,16.45
2023-03-21T01:58:56.789Z,16.83
2023-03-21T02:01:23.286Z,15.32
2023-03-21T02:03:51.697Z,17.65
2023-03-21T02:06:31.733Z,13.32
2023-03-21T02:09:08.625Z,12.85
2023-03-21T02:11:37.208Z,13.38
2023-03-21T02:14:06.710Z,16.10
2023-03-21T02:17:15.666Z,14.47
2023-03-21T02:19:58.881Z,14.00
2023-03-21T02:23:02.367Z,16.77
2023-03-21T02:25:53.399Z,15.93
2023-03-21T02:28:30.926Z,19.38
2023-03-21T02:31:22.334Z,22.85
2023-03-21T02:34:17.929Z,15.75
2023-03-21T02:37:03.266Z,16.17
2023-03-21T02:39:56.470Z,19.67
2023-03-21T02:42:34.524Z,15.15
2023-03-21T02:45:33.310Z,19.55
2023-03-21T02:48:12.157Z,16.95
2023-03-21T02:50:49.666Z,22.02
2023-03-21T02:53:20.279Z,16.85
2023-03-21T02:55:48.071Z,22.35
2023-03-21T02:58:18.935Z,15.68
2023-03-21T03:00:46.008Z,17.58
2023-03-21T03:03:24.794Z,20.08
2023-03-21T03:06:00.669Z,16.27
2023-03-21T03:09:03.349Z,19.02
2023-03-21T03:11:34.652Z,19.50
2023-03-21T03:14:49.902Z,19.10
2023-03-21T03:17:49.151Z,20.25
2023-03-21T03:20:32.758Z,20.67
2023-03-21T03:23:05.774Z,20.98
2023-03-21T03:26:02.339Z,15.13
2023-03-21T03:28:37.113Z,14.18
2023-03-21T03:31:09.511Z,20.05
2023-03-21T03:33:40.839Z,16.20
2023-03-21T03:36:18.822Z,16.80
2023-03-21T03:38:57.335Z,16.77
2023-03-21T03:41:29.443Z,16.63
2023-03-21T03:43:59.454Z,14.25
2023-03-21T03:46:35.867Z,17.00
2023-03-21T03:49:09.510Z,13.13
2023-03-21T03:52:01.550Z,22.48
2023-03-21T03:54:37.147Z,17.33
2023-03-21T03:57:05.182Z,14.27
2023-03-21T03:59:35.890Z,11.45
2023-03-21T04:02:02.980Z,12.68
2023-03-21T04:04:29.595Z,15.40
2023-03-21T04:06:57.977Z,16.33
2023-03-21T04:09:37.454Z,12.68
2023-03-21T04:12:09.778Z,15.23
2023-03-21T04:14:44.401Z,15.85
2023-03-21T04:17:11.256Z,14.88
2023-03-21T04:19:37.696Z,14.88
2023-03-21T04:22:04.047Z,16.08
2023-03-21T04:24:33.686Z,16.35
2023-03-21T04:27:00.994Z,17.73
2023-03-21T04:29:29.574Z,16.73
2023-03-21T04:31:56.645Z,19.27
2023-03-21T04:34:28.066Z,13.75
2023-03-21T04:36:55.449Z,14.75
2023-03-21T04:39:21.911Z,15.48
2023-03-21T04:41:48.608Z,13.77
2023-03-21T04:44:16.427Z,16.30
2023-03-21T04:46:43.066Z,15.20
2023-03-21T04:49:09.736Z,18.50
2023-03-21T04:51:36.946Z,17.00
2023-03-21T04:54:03.729Z,14.27
2023-03-21T04:56:32.521Z,13.80
2023-03-21T04:59:00.160Z,20.33
2023-03-21T05:01:30.682Z,19.10
2023-03-21T05:04:01.576Z,17.38
2023-03-21T05:06:28.942Z,18.25
2023-03-21T05:08:59.832Z,18.40
2023-03-21T05:11:28.214Z,18.20
2023-03-21T05:13:54.648Z,20.08
2023-03-21T05:16:25.324Z,15.93
2023-03-21T05:18:53.456Z,20.17
2023-03-21T05:21:20.861Z,21.35
2023-03-21T05:23:54.148Z,19.40
2023-03-21T05:26:22.212Z,15.93
2023-03-21T05:28:49.084Z,16.42
2023-03-21T05:31:16.718Z,17.48
2023-03-21T05:33:44.433Z,24.88
2023-03-21T05:36:11.239Z,15.93
2023-03-21T05:38:38.255Z,18.05
2023-03-21T05:41:05.052Z,22.23
2023-03-21T05:43:31.441Z,16.38
2023-03-21T05:45:57.955Z,14.60
2023-03-21T05:48:24.368Z,13.98
2023-03-21T05:50:50.850Z,13.07
2023-03-21T05:53:17.266Z,14.60
2023-03-21T05:55:43.591Z,17.80
2023-03-21T05:58:09.930Z,13.10
2023-03-21T06:00:36.504Z,14.80
2023-03-21T06:03:03.085Z,19.08
2023-03-21T06:05:29.480Z,17.15
2023-03-21T06:07:56.109Z,16.58
2023-03-21T06:10:22.912Z,18.10
2023-03-21T06:12:49.366Z,17.00
2023-03-21T06:15:16.501Z,18.00
2023-03-21T06:17:42.978Z,16.75
2023-03-21T06:20:10.573Z,16.70
2023-03-21T06:22:36.978Z,17.33
2023-03-21T06:25:05.140Z,15.05
2023-03-21T06:27:31.427Z,15.38
2023-03-21T06:29:58.056Z,17.15
2023-03-21T06:32:24.930Z,22.90
2023-03-21T06:34:51.581Z,16.90
2023-03-21T06:37:18.494Z,16.25
2023-03-21T06:39:46.963Z,19.73
2023-03-21T06:42:14.168Z,18.58
2023-03-21T06:44:41.152Z,14.20
2023-03-21T06:47:07.677Z,13.10
2023-03-21T06:49:34.135Z,16.65
2023-03-21T06:52:00.658Z,14.57
2023-03-21T06:54:26.984Z,15.80
2023-03-21T06:56:54.270Z,11.82
2023-03-21T06:59:21.496Z,19.13
2023-03-21T07:01:48.747Z,18.30
2023-03-21T07:04:15.212Z,16.90
2023-03-21T07:06:42.461Z,15.52
2023-03-21T07:09:08.910Z,19.92
2023-03-21T07:11:36.828Z,16.08
2023-03-21T07:14:04.102Z,14.25
2023-03-21T07:16:30.672Z,18.83
2023-03-21T07:18:57.208Z,16.48
2023-03-21T07:21:23.780Z,17.55
2023-03-21T07:23:50.631Z,14.50
2023-03-21T07:26:18.234Z,18.77
2023-03-21T07:28:45.485Z,14.90
2023-03-21T07:31:14.420Z,14.15
2023-03-21T07:33:41.012Z,12.85
2023-03-21T07:36:12.514Z,17.15
2023-03-21T07:38:39.565Z,13.45
2023-03-21T07:41:06.312Z,13.50
2023-03-21T07:43:32.693Z,14.25
2023-03-21T07:46:02.457Z,15.27
2023-03-21T07:48:29.604Z,15.30
2023-03-21T07:50:56.482Z,15.30
2023-03-21T07:53:22.966Z,17.50
2023-03-21T07:55:51.479Z,15.50
2023-03-21T07:58:18.098Z,15.05
2023-03-21T08:00:44.553Z,13.93
2023-03-21T08:03:11.182Z,10.43
2023-03-21T08:05:38.814Z,16.83
2023-03-21T08:08:06.095Z,11.48
2023-03-21T08:10:33.666Z,15.43
2023-03-21T08:13:00.131Z,13.82
2023-03-21T08:15:26.503Z,9.55
2023-03-21T08:17:53.061Z,11.57
2023-03-21T08:20:21.739Z,8.10
2023-03-21T08:22:49.528Z,10.75
2023-03-21T08:25:19.526Z,8.35
2023-03-21T08:27:46.647Z,13.07
2023-03-21T08:30:16.494Z,12.95
2023-03-21T08:32:43.197Z,9.15
2023-03-21T08:35:12.233Z,10.73
2023-03-21T08:37:40.073Z,16.38
2023-03-21T08:40:11.131Z,12.40
2023-03-21T08:45:05.782Z,14.80
2023-03-21T08:47:32.546Z,14.20
2023-03-21T08:49:59.330Z,12.27
2023-03-21T08:52:27.000Z,13.18
2023-03-21T08:54:54.458Z,12.60
2023-03-21T08:57:21.219Z,12.55
2023-03-21T08:59:47.580Z,13.05
2023-03-21T09:02:16.116Z,10.98
2023-03-21T09:04:44.689Z,11.68
2023-03-21T09:07:14.275Z,14.15
2023-03-21T09:09:41.538Z,13.30
2023-03-21T09:12:08.395Z,9.20
2023-03-21T09:14:35.230Z,13.55
2023-03-21T09:17:02.031Z,7.10
2023-03-21T09:19:29.710Z,11.38
2023-03-21T09:21:57.502Z,13.48
2023-03-21T09:24:24.181Z,11.15
2023-03-21T09:26:51.592Z,10.82
2023-03-21T09:29:21.630Z,14.60
2023-03-21T09:31:48.218Z,8.65
2023-03-21T09:34:15.578Z,6.82
2023-03-21T09:36:44.010Z,9.07
2023-03-21T09:39:11.998Z,11.02
2023-03-21T09:42:15.449Z,13.35
2023-03-21T09:45:01.633Z,15.23
2023-03-21T09:47:32.977Z,17.25
2023-03-21T09:50:13.981Z,12.82
2023-03-21T09:53:19.028Z,10.63
2023-03-21T09:55:46.183Z,9.63
2023-03-21T09:58:30.848Z,11.20
2023-03-21T10:01:08.226Z,8.88
2023-03-21T10:03:35.299Z,11.63
2023-03-21T10:06:07.138Z,11.27
2023-03-21T10:08:37.286Z,10.80
2023-03-21T10:11:11.874Z,8.10
2023-03-21T10:13:49.038Z,9.10
2023-03-21T10:16:21.167Z,7.63
2023-03-21T10:18:49.089Z,8.77
2023-03-21T10:21:47.386Z,10.88
2023-03-21T10:24:22.314Z,8.13
2023-03-21T10:26:51.138Z,10.23
2023-03-21T10:29:22.414Z,13.80
2023-03-21T10:31:50.641Z,8.05
2023-03-21T10:34:39.909Z,13.18
2023-03-21T10:37:06.913Z,8.90
2023-03-21T10:39:38.986Z,7.75
2023-03-21T10:42:06.567Z,10.32
2023-03-21T10:44:35.560Z,9.00
2023-03-21T10:47:08.608Z,9.85
2023-03-21T10:50:06.306Z,8.98
2023-03-21T10:52:29.704Z,7.40
2023-03-21T10:55:28.813Z,8.57
2023-03-21T10:58:08.293Z,8.77
2023-03-21T11:00:39.889Z,8.98
2023-03-21T11:03:07.871Z,8.25
2023-03-21T11:05:38.574Z,8.60
2023-03-21T11:08:18.899Z,6.88
2023-03-21T11:10:55.233Z,7.70
2023-03-21T11:13:42.598Z,7.85
2023-03-21T11:16:09.277Z,10.63
2023-03-21T11:18:42.142Z,6.97
2023-03-21T11:21:11.811Z,5.97
2023-03-21T11:23:45.402Z,8.68
2023-03-21T11:26:19.669Z,7.28
2023-03-21T11:28:46.454Z,9.95
2023-03-21T11:31:13.297Z,12.05
2023-03-21T11:33:49.397Z,7.25
2023-03-21T11:36:18.750Z,5.63
2023-03-21T11:38:52.824Z,9.95
2023-03-21T11:41:29.688Z,12.27
2023-03-21T11:43:56.931Z,8.27
2023-03-21T11:46:25.731Z,6.57
2023-03-21T11:48:52.752Z,8.63
2023-03-21T11:51:41.039Z,7.88
2023-03-21T11:54:17.506Z,5.50
2023-03-21T11:56:47.650Z,4.53
2023-03-21T11:59:29.370Z,7.10
2023-03-21T12:02:14.876Z,6.47
2023-03-21T12:04:48.026Z,6.43
2023-03-21T12:07:23.502Z,9.57
2023-03-21T12:10:14.834Z,6.32
2023-03-21T12:12:50.364Z,5.00
2023-03-21T12:15:38.425Z,5.50
2023-03-21T12:18:34.165Z,7.22
2023-03-21T12:21:18.540Z,5.20
2023-03-21T12:23:54.135Z,7.15
2023-03-21T12:26:28.796Z,9.57
2023-03-21T12:29:10.170Z,6.90
2023-03-21T12:32:07.592Z,6.50
2023-03-21T12:34:49.099Z,11.98
2023-03-21T12:37:33.842Z,6.28
2023-03-21T12:40:33.981Z,5.90
2023-03-21T12:43:08.993Z,4.18
2023-03-21T12:45:47.215Z,10.18
2023-03-21T12:48:47.635Z,5.53
2023-03-21T12:51:22.838Z,7.70
2023-03-21T12:54:07.703Z,6.78
2023-03-21T12:56:37.924Z,9.45
2023-03-21T12:59:13.024Z,5.77
2023-03-21T13:01:41.667Z,4.65
2023-03-21T13:04:26.330Z,5.60
2023-03-21T13:06:55.908Z,7.47
2023-03-21T13:09:40.604Z,8.68
2023-03-21T13:12:18.867Z,5.75
2023-03-21T13:15:03.531Z,5.30
2023-03-21T13:17:37.596Z,10.73
2023-03-21T13:20:15.968Z,6.70
2023-03-21T13:22:42.279Z,14.55
2023-03-21T13:25:22.179Z,6.35
2023-03-21T13:28:02.183Z,8.30
2023-03-21T13:30:30.526Z,10.90
2023-03-21T13:33:37.419Z,9.20
2023-03-21T13:36:09.129Z,7.05
2023-03-21T13:38:39.940Z,6.40
2023-03-21T13:41:17.689Z,4.43
2023-03-21T13:43:51.290Z,5.22
2023-03-21T13:46:26.685Z,4.13
2023-03-21T13:48:58.796Z,6.68
2023-03-21T13:51:28.385Z,5.32
2023-03-21T13:54:07.877Z,5.28
2023-03-21T13:56:46.669Z,6.57
2023-03-21T13:59:18.365Z,7.28
2023-03-21T14:02:13.449Z,6.20
2023-03-21T14:05:00.003Z,5.57
2023-03-21T14:07:33.499Z,6.90
2023-03-21T14:10:05.181Z,4.37
2023-03-21T14:12:39.498Z,5.00
2023-03-21T14:15:17.838Z,6.68
2023-03-21T14:17:58.583Z,6.57
2023-03-21T14:20:39.286Z,4.18
2023-03-21T14:23:08.232Z,4.15
2023-03-21T14:25:46.824Z,5.80
2023-03-21T14:28:20.534Z,4.65
2023-03-21T14:30:53.795Z,5.38
2023-03-21T14:33:27.280Z,5.05
2023-03-21T14:35:57.956Z,4.65
2023-03-21T14:38:27.584Z,7.07
2023-03-21T14:40:55.735Z,6.85
2023-03-21T14:43:24.126Z,5.03
2023-03-21T14:45:54.458Z,3.20
2023-03-21T14:48:28.415Z,8.68
2023-03-21T14:50:57.186Z,5.05
2023-03-21T14:53:27.929Z,6.32
2023-03-21T14:56:06.420Z,5.93
2023-03-21T14:58:34.150Z,6.18
2023-03-21T15:01:06.227Z,7.43
2023-03-21T15:03:33.712Z,7.55
2023-03-21T15:06:01.300Z,5.63
2023-03-21T15:08:28.907Z,5.43
2023-03-21T15:11:08.121Z,7.15
2023-03-21T15:13:40.376Z,11.02
2023-03-21T15:16:07.620Z,3.78
2023-03-21T15:18:36.750Z,3.30
2023-03-21T15:21:27.602Z,4.57
2023-03-21T15:23:57.749Z,8.52
2023-03-21T15:26:25.959Z,8.20
2023-03-21T15:28:58.411Z,5.00
2023-03-21T15:31:31.814Z,6.78
2023-03-21T15:33:58.605Z,6.95
2023-03-21T15:36:34.026Z,6.07
2023-03-21T15:39:12.582Z,6.22
2023-03-21T15:41:39.147Z,10.70
2023-03-21T15:44:08.336Z,6.00
2023-03-21T15:46:49.896Z,8.23
2023-03-21T15:49:16.318Z,8.00
2023-03-21T15:51:46.120Z,6.13
2023-03-21T15:54:21.991Z,6.15
2023-03-21T15:56:51.523Z,3.60
2023-03-21T15:59:18.087Z,8.68
2023-03-21T16:01:49.091Z,3.88
2023-03-21T16:07:15.936Z,5.47
2023-03-21T16:09:45.310Z,7.45
2023-03-21T16:12:14.288Z,6.57
2023-03-21T16:14:42.602Z,6.20
2023-03-21T16:17:27.589Z,4.18
2023-03-21T16:19:55.191Z,6.70
2023-03-21T16:22:22.157Z,7.80
2023-03-21T16:24:48.779Z,8.88
2023-03-21T16:27:18.251Z,5.35
2023-03-21T16:29:44.663Z,8.43
2023-03-21T16:32:18.042Z,6.90
2023-03-21T16:34:44.671Z,9.82
2023-03-21T16:37:12.040Z,6.35
2023-03-21T16:39:38.564Z,6.85
2023-03-21T16:42:05.643Z,4.20
2023-03-21T16:44:33.627Z,6.68
2023-03-21T16:47:02.368Z,4.05
2023-03-21T16:49:29.111Z,4.70
2023-03-21T16:51:56.469Z,4.47
2023-03-21T16:54:23.134Z,6.82
2023-03-21T16:56:52.514Z,4.90
2023-03-21T16:59:19.213Z,6.32
2023-03-21T17:01:47.670Z,5.97
2023-03-21T17:04:16.264Z,5.57
2023-03-21T17:06:46.246Z,3.47
2023-03-21T17:09:14.427Z,7.78
2023-03-21T17:11:44.541Z,4.10
2023-03-21T17:14:12.795Z,4.53
2023-03-21T17:16:42.423Z,7.25
2023-03-21T17:19:23.794Z,6.05
2023-03-21T17:21:50.210Z,3.78
2023-03-21T17:24:16.702Z,8.27
2023-03-21T17:26:43.106Z,6.30
2023-03-21T17:29:13.833Z,3.67
2023-03-21T17:31:40.279Z,8.43
2023-03-21T17:34:06.830Z,4.13
2023-03-21T17:36:38.648Z,3.38
2023-03-21T17:39:08.780Z,5.55
2023-03-21T17:41:35.585Z,3.80
2023-03-21T17:44:02.660Z,7.30
2023-03-21T17:46:34.157Z,4.07
2023-03-21T17:49:00.615Z,5.32
2023-03-21T17:51:30.040Z,3.47
2023-03-21T17:53:57.199Z,6.30
2023-03-21T17:56:30.612Z,3.47
2023-03-21T17:59:02.839Z,2.13
2023-03-21T18:01:31.209Z,5.32
2023-03-21T18:03:58.573Z,3.35
2023-03-21T18:06:26.402Z,4.07
2023-03-21T18:08:54.138Z,3.60
2023-03-21T18:11:22.501Z,6.80
2023-03-21T18:13:49.013Z,5.82
2023-03-21T18:16:19.359Z,19.95
2023-03-21T18:18:46.610Z,5.30
2023-03-21T18:21:14.426Z,5.78
2023-03-21T18:23:41.004Z,4.10
2023-03-21T18:26:09.792Z,4.65
2023-03-21T18:28:39.556Z,7.63
2023-03-21T18:31:15.674Z,5.90
2023-03-21T18:33:46.522Z,6.38
2023-03-21T18:36:16.260Z,5.70
2023-03-21T18:38:43.211Z,4.75
2023-03-21T18:41:09.811Z,4.68
2023-03-21T18:44:02.237Z,5.65
2023-03-21T18:46:24.196Z,5.40
2023-03-21T18:48:51.796Z,4.63
2023-03-21T18:51:19.172Z,7.82
2023-03-21T18:53:45.735Z,4.47
2023-03-21T18:56:46.617Z,6.05
2023-03-21T18:58:59.178Z,6.22
2023-03-21T19:01:25.757Z,6.28
2023-03-21T19:04:16.436Z,7.57
2023-03-21T19:06:46.568Z,7.72
2023-03-21T19:09:14.343Z,5.80
2023-03-21T19:11:44.008Z,7.93
2023-03-21T19:14:11.481Z,7.97
2023-03-21T19:17:02.086Z,4.35
2023-03-21T19:19:26.038Z,8.38
2023-03-21T19:21:52.618Z,8.98
2023-03-21T19:24:27.588Z,8.40
2023-03-21T19:26:54.735Z,7.35
2023-03-21T19:29:21.938Z,7.15
2023-03-21T19:31:50.944Z,7.53
2023-03-21T19:34:17.834Z,8.00
2023-03-21T19:36:45.960Z,6.70
2023-03-21T19:39:13.229Z,5.20
2023-03-21T19:41:40.531Z,6.35
2023-03-21T19:44:06.960Z,9.82
2023-03-21T19:46:33.317Z,7.47
2023-03-21T19:49:03.896Z,3.88
2023-03-21T19:51:31.130Z,4.47
2023-03-21T19:54:04.593Z,5.43
2023-03-21T19:56:31.888Z,7.10
2023-03-21T19:58:58.577Z,3.55
2023-03-21T20:01:25.982Z,5.93
2023-03-21T20:03:52.582Z,9.15
2023-03-21T20:06:19.733Z,4.78
2023-03-21T20:11:33.558Z,6.55
2023-03-21T20:14:02.736Z,5.03
2023-03-21T20:16:35.502Z,7.15
2023-03-21T20:19:08.591Z,6.15
2023-03-21T20:21:46.201Z,6.13
2023-03-21T20:24:16.816Z,5.72
2023-03-21T20:26:44.898Z,7.55
2023-03-21T20:30:03.827Z,5.55
2023-03-21T20:31:57.886Z,10.05
2023-03-21T20:34:28.450Z,5.85
2023-03-21T20:39:22.142Z,4.88
2023-03-21T20:41:48.907Z,8.10
2023-03-21T20:47:05.429Z,8.75
2023-03-21T20:49:32.117Z,11.75
2023-03-21T20:54:45.570Z,8.27
2023-03-21T20:57:12.100Z,8.90
2023-03-21T20:59:39.187Z,8.70
2023-03-21T21:02:05.514Z,8.63
2023-03-21T21:04:49.821Z,7.88
2023-03-21T21:07:21.303Z,13.30
2023-03-21T21:09:48.731Z,10.45
2023-03-21T21:12:18.930Z,9.55
2023-03-21T21:14:45.622Z,8.33
2023-03-21T21:17:54.003Z,11.75
2023-03-21T21:20:01.440Z,8.60
2023-03-21T21:22:28.853Z,9.73
2023-03-21T21:24:55.206Z,12.45
2023-03-21T21:27:21.547Z,10.45
2023-03-21T21:29:49.875Z,10.15
2023-03-21T21:32:18.270Z,11.23
2023-03-21T21:34:44.708Z,8.90
2023-03-21T21:37:11.162Z,11.70
2023-03-21T21:39:41.836Z,10.63
2023-03-21T21:42:08.258Z,7.55
2023-03-21T21:44:34.687Z,9.43
2023-03-21T21:47:04.046Z,8.35
2023-03-21T21:49:31.092Z,8.25
2023-03-21T21:51:59.644Z,8.95
2023-03-21T21:54:26.014Z,8.90
2023-03-21T21:56:53.899Z,8.63
2023-03-21T21:59:21.929Z,9.00
2023-03-21T22:01:48.380Z,11.00
2023-03-21T22:04:15.354Z,9.90
2023-03-21T22:06:43.144Z,8.73
2023-03-21T22:09:10.817Z,9.20
2023-03-21T22:11:37.193Z,8.15
2023-03-21T22:14:03.649Z,7.88
2023-03-21T22:16:30.293Z,6.22
2023-03-21T22:18:56.692Z,7.30
2023-03-21T22:21:23.515Z,10.18
2023-03-21T22:23:50.234Z,6.30
2023-03-21T22:26:16.754Z,8.93
2023-03-21T22:28:43.736Z,10.25
2023-03-21T22:31:15.681Z,8.27
2023-03-21T22:33:43.207Z,10.98
2023-03-21T22:36:10.749Z,7.82
2023-03-21T22:38:38.023Z,6.57
2023-03-21T22:41:05.999Z,7.63
2023-03-21T22:43:35.693Z,6.55
2023-03-21T22:46:03.449Z,9.70
2023-03-21T22:48:30.778Z,9.15
2023-03-21T22:50:58.618Z,10.25
2023-03-21T22:53:25.262Z,7.75
2023-03-21T22:55:51.708Z,7.80
2023-03-21T22:58:18.116Z,6.72
2023-03-21T23:00:47.817Z,8.77
2023-03-21T23:03:16.407Z,9.50
2023-03-21T23:05:44.385Z,6.60
2023-03-21T23:08:12.593Z,9.77
2023-03-21T23:10:41.482Z,5.65
2023-03-21T23:13:08.282Z,8.55
2023-03-21T23:15:34.618Z,5.85
2023-03-21T23:18:01.022Z,6.38
2023-03-21T23:20:27.519Z,7.22
2023-03-21T23:22:54.282Z,7.43
2023-03-21T23:25:21.170Z,8.15
2023-03-21T23:27:48.135Z,7.40
2023-03-21T23:30:14.683Z,6.57
2023-03-21T23:32:41.324Z,6.60
2023-03-21T23:35:08.518Z,5.68
2023-03-21T23:37:34.932Z,5.65
2023-03-21T23:40:01.496Z,5.72
2023-03-21T23:42:29.214Z,8.43
2023-03-21T23:44:55.707Z,7.70
2023-03-21T23:47:22.096Z,7.88
2023-03-21T23:49:49.887Z,7.32
2023-03-21T23:52:16.287Z,5.50
2023-03-21T23:54:42.908Z,4.22
2023-03-21T23:57:09.475Z,11.75
2023-03-21T23:59:35.966Z,7.05
